map of KMNV home
KMNV - Airport
Location
City:  Madisonville, Tennessee, United States
Name:Monroe County Airport
ICAO:KMNV
FAA LID:MNV

Details
Type:Airport (Airfield)
Use:Public/Civil
Latitude:3532'43"N (35.545222)
Longitude:8422'49"W (-84.380388)
Datum:WGS 1984
Elevation:1031 ft (314 m)
Variation:5.40W (WMM2015 magnetic declination)
-0.07 annual change
Runways:1
Longest:3643 × 75 ft (1110 × 23 m), paved

Time
Time Zone:UTC-5 (DST-4)
Local Time:

Weather
METAR:KMNV 130915Z AUTO 00000KT 10SM CLR M05/M12 A3004 RMK A01

Related Locations
Nearby:
Farthest:MQZ: 11331 mi / 18236 km
Margaret River [Margaret River Airport], WA, AU

Find:

   beyond  
but within

Other Information
Maps:
NOTAMs:
Links:
Sources:

  
flag of United States
flag of Tennessee
  

Sectional Chart

Flight Planning
at skyvector.com

Satellite Image

Google Maps Satellite view

 

Copyright © 2004-2017 Karl L. Swartz. All rights reserved.
The Great Circle Mapper name and logo are trademarks of the Great Circle Mapper.
All other trademarks mentioned herein belong to their respective owners.
Please see credits for attibutions and further copyright information.

  Follow gcmap on Facebook Follow gcmap on Twitter Follow gcmap on Google+ GCmap on LinkedIn

hCard Microformat

Geo Microformat